Time;durP1;ratioP1;P1;durP2;ratioP2;P2;SDS_P1;SDS_P2;PMS_P1;PMS_P2;Temp;Humidity;BMP_temperature;BMP_pressure;BME280_temperature;BME280_humidity;BME280_pressure;Samples;Min_cycle;Max_cycle;Signal;HPM_P1;HPM_P2
2023/08/24 00:00:52;;;;;;;5.35;4.30;;;;;18.70;94505.00;;;;7399680;19;20168;-69
2023/08/24 00:03:22;;;;;;;5.10;4.05;;;;;18.70;94498.00;;;;7395064;19;20615;-70
2023/08/24 00:05:56;;;;;;;11.25;5.03;;;;;18.70;94498.00;;;;7398956;19;20564;-71
2023/08/24 00:08:24;;;;;;;6.68;3.88;;;;;18.60;94487.00;;;;7399127;19;20191;-71
2023/08/24 00:11:01;;;;;;;6.63;3.80;;;;;18.60;94485.00;;;;7399668;19;20144;-71
2023/08/24 00:13:36;;;;;;;5.88;4.10;;;;;18.80;94489.00;;;;7400328;19;20164;-72
2023/08/24 00:16:11;;;;;;;6.20;3.97;;;;;19.00;94484.00;;;;7399539;19;20157;-71
2023/08/24 00:18:39;;;;;;;10.93;4.95;;;;;19.10;94483.00;;;;7399468;19;20141;-70
2023/08/24 00:21:17;;;;;;;7.45;4.38;;;;;19.30;94473.00;;;;7398188;19;20619;-75
2023/08/24 00:23:45;;;;;;;5.10;3.85;;;;;19.40;94473.00;;;;7400209;19;20683;-74
2023/08/24 00:26:20;;;;;;;7.80;4.38;;;;;19.40;94475.00;;;;7398683;19;20140;-75
2023/08/24 00:28:48;;;;;;;4.85;4.00;;;;;19.50;94474.00;;;;7397557;19;20160;-74
2023/08/24 00:31:16;;;;;;;8.90;3.80;;;;;19.60;94479.00;;;;7398975;19;20588;-72
2023/08/24 00:33:50;;;;;;;6.50;3.55;;;;;19.60;94476.00;;;;7399405;19;21130;-74
2023/08/24 00:36:18;;;;;;;7.13;4.10;;;;;19.70;94466.00;;;;7399703;19;20125;-75
2023/08/24 00:38:53;;;;;;;4.30;3.70;;;;;19.60;94457.00;;;;7400296;19;20607;-74
2023/08/24 00:41:28;;;;;;;7.28;3.67;;;;;19.70;94443.00;;;;7397320;19;20137;-74
2023/08/24 00:44:03;;;;;;;3.65;3.35;;;;;19.60;94451.00;;;;7396715;19;20695;-74
2023/08/24 00:46:32;;;;;;;6.38;3.78;;;;;19.70;94447.00;;;;7398952;19;20580;-75
2023/08/24 00:49:07;;;;;;;7.75;3.70;;;;;19.70;94447.00;;;;7396900;19;20612;-75
2023/08/24 00:51:44;;;;;;;7.97;3.75;;;;;19.70;94436.00;;;;7398967;19;20191;-75
2023/08/24 00:54:19;;;;;;;6.90;4.18;;;;;19.80;94438.00;;;;7398305;19;20132;-74
2023/08/24 00:56:47;;;;;;;7.35;4.00;;;;;19.90;94433.00;;;;7397766;19;20572;-76
2023/08/24 00:59:23;;;;;;;8.50;4.13;;;;;20.10;94439.00;;;;7398537;19;20140;-80
2023/08/24 01:02:06;;;;;;;5.97;3.95;;;;;20.00;94436.00;;;;7394020;19;20286;-81
2023/08/24 01:04:42;;;;;;;4.20;3.60;;;;;19.90;94428.00;;;;7401555;19;20143;-78
2023/08/24 01:07:18;;;;;;;7.88;3.78;;;;;19.90;94434.00;;;;7398248;19;20455;-78
2023/08/24 01:09:49;;;;;;;4.50;3.67;;;;;19.90;94437.00;;;;7397283;19;20176;-78
2023/08/24 01:12:28;;;;;;;5.20;3.83;;;;;20.10;94426.00;;;;7398521;19;20132;-78
2023/08/24 01:15:25;;;;;;;8.15;3.97;;;;;20.20;94424.00;;;;7397842;19;20144;-78
2023/08/24 01:17:57;;;;;;;5.55;3.65;;;;;20.10;94422.00;;;;7396932;19;20152;-81
2023/08/24 01:20:35;;;;;;;4.43;3.67;;;;;20.20;94425.00;;;;7396153;19;20497;-78
2023/08/24 01:23:43;;;;;;;5.28;3.97;;;;;20.20;94422.00;;;;7396438;19;20125;-80
2023/08/24 01:26:21;;;;;;;5.97;3.85;;;;;20.30;94426.00;;;;7398378;19;20144;-77
2023/08/24 01:28:49;;;;;;;5.65;3.63;;;;;20.30;94423.00;;;;7399894;19;20137;-78
2023/08/24 01:31:24;;;;;;;5.00;3.30;;;;;20.30;94419.00;;;;7397469;19;20144;-78
2023/08/24 01:33:59;;;;;;;4.57;3.42;;;;;20.10;94422.00;;;;7400140;19;20503;-78
2023/08/24 01:36:34;;;;;;;8.45;4.20;;;;;20.20;94421.00;;;;7399984;19;20125;-78
2023/08/24 01:39:33;;;;;;;8.30;3.60;;;;;20.10;94423.00;;;;7398646;19;20477;-79
2023/08/24 01:42:05;;;;;;;4.82;3.70;;;;;20.00;94427.00;;;;7396642;19;20149;-79
2023/08/24 01:44:41;;;;;;;8.63;3.65;;;;;19.90;94432.00;;;;7398299;19;20215;-78
2023/08/24 01:47:17;;;;;;;6.68;3.50;;;;;20.00;94427.00;;;;7399244;19;20482;-78
2023/08/24 01:49:48;;;;;;;6.80;4.18;;;;;20.10;94422.00;;;;7396928;19;20133;-79
2023/08/24 01:52:22;;;;;;;7.07;4.07;;;;;20.10;94432.00;;;;7397671;19;20121;-79
2023/08/24 01:54:52;;;;;;;10.68;3.80;;;;;20.10;94433.00;;;;7397423;19;20141;-79
2023/08/24 01:57:26;;;;;;;7.47;3.90;;;;;20.10;94427.00;;;;7397701;19;20143;-79
2023/08/24 02:00:00;;;;;;;5.40;3.70;;;;;19.90;94427.00;;;;7396353;19;20615;-79
2023/08/24 02:02:42;;;;;;;9.98;4.07;;;;;20.10;94433.00;;;;7396658;19;20179;-79
2023/08/24 02:05:17;;;;;;;6.18;3.60;;;;;20.10;94429.00;;;;7398561;19;20778;-79
2023/08/24 02:07:54;;;;;;;8.13;3.97;;;;;20.00;94428.00;;;;7395160;19;20132;-79
2023/08/24 02:10:28;;;;;;;5.47;3.42;;;;;19.90;94426.00;;;;7395744;19;20144;-78
2023/08/24 02:13:03;;;;;;;5.72;3.65;;;;;20.20;94414.00;;;;7396930;19;20159;-80
2023/08/24 02:15:41;;;;;;;6.22;3.50;;;;;20.20;94411.00;;;;7397183;19;20150;-79
2023/08/24 02:18:09;;;;;;;6.85;4.00;;;;;20.10;94418.00;;;;7396013;19;20501;-79
2023/08/24 02:20:43;;;;;;;8.95;4.05;;;;;20.10;94411.00;;;;7397251;19;20139;-79
2023/08/24 02:23:17;;;;;;;7.85;3.90;;;;;20.20;94408.00;;;;7393374;19;20500;-79
2023/08/24 02:25:45;;;;;;;7.22;3.90;;;;;20.20;94413.00;;;;7396595;19;20133;-79
2023/08/24 02:28:19;;;;;;;8.02;3.88;;;;;20.10;94416.00;;;;7396983;19;20153;-79
2023/08/24 02:30:47;;;;;;;4.47;3.58;;;;;19.90;94420.00;;;;7396087;19;20153;-80
2023/08/24 02:33:21;;;;;;;6.03;3.65;;;;;19.60;94422.00;;;;7396537;19;20141;-80
2023/08/24 02:35:55;;;;;;;6.78;3.45;;;;;19.40;94424.00;;;;7398842;19;20575;-80
2023/08/24 02:38:29;;;;;;;4.95;3.72;;;;;19.10;94421.00;;;;7396234;19;20155;-82
2023/08/24 02:41:05;;;;;;;9.57;4.40;;;;;19.00;94423.00;;;;7395700;19;20116;-79
2023/08/24 02:43:39;;;;;;;4.68;3.58;;;;;18.80;94423.00;;;;7396618;19;20145;-79
2023/08/24 02:46:14;;;;;;;6.95;4.10;;;;;18.70;94425.00;;;;7395849;19;20635;-79
2023/08/24 02:48:48;;;;;;;5.95;3.60;;;;;18.70;94414.00;;;;7389553;19;20170;-81
2023/08/24 02:51:16;;;;;;;6.95;4.22;;;;;18.80;94403.00;;;;7397009;19;20113;-79
2023/08/24 02:53:51;;;;;;;6.68;4.60;;;;;19.00;94394.00;;;;7397134;19;20155;-79
2023/08/24 02:56:25;;;;;;;8.63;4.78;;;;;18.90;94403.00;;;;7394194;19;20132;-78
2023/08/24 02:59:01;;;;;;;5.35;4.00;;;;;19.00;94400.00;;;;7395647;19;20610;-81
2023/08/24 03:01:38;;;;;;;7.43;4.32;;;;;18.90;94396.00;;;;7395677;19;20547;-79
2023/08/24 03:04:12;;;;;;;5.35;4.13;;;;;18.70;94392.00;;;;7391509;19;20168;-79
2023/08/24 03:06:47;;;;;;;4.25;3.58;;;;;18.70;94378.00;;;;7394981;19;20575;-78
2023/08/24 03:09:15;;;;;;;7.00;4.05;;;;;18.60;94386.00;;;;7394695;19;20148;-79
2023/08/24 03:11:43;;;;;;;9.05;4.50;;;;;18.60;94379.00;;;;7398280;19;20145;-82
2023/08/24 03:14:21;;;;;;;6.70;4.72;;;;;18.60;94379.00;;;;7402854;19;20506;-80
2023/08/24 03:16:51;;;;;;;7.72;4.40;;;;;18.70;94373.00;;;;7402307;19;20499;-81
2023/08/24 03:19:26;;;;;;;9.00;4.32;;;;;18.70;94370.00;;;;7401666;19;20594;-81
2023/08/24 03:22:00;;;;;;;6.25;4.00;;;;;18.60;94369.00;;;;7399665;19;20539;-79
2023/08/24 03:24:31;;;;;;;9.63;4.50;;;;;18.70;94373.00;;;;7397946;19;20149;-80
2023/08/24 03:27:06;;;;;;;8.32;4.57;;;;;18.80;94362.00;;;;7402399;19;20149;-80
2023/08/24 03:29:34;;;;;;;7.93;4.82;;;;;18.70;94361.00;;;;7402983;19;20172;-80
2023/08/24 03:32:09;;;;;;;8.07;4.47;;;;;18.80;94354.00;;;;7404113;19;20598;-80
2023/08/24 03:34:43;;;;;;;4.75;4.10;;;;;18.90;94351.00;;;;7401179;19;20742;-79
2023/08/24 03:37:18;;;;;;;11.23;4.85;;;;;18.90;94358.00;;;;7404143;19;20136;-79
2023/08/24 03:39:55;;;;;;;6.85;4.85;;;;;19.00;94352.00;;;;7403407;19;20125;-79
2023/08/24 03:42:30;;;;;;;6.28;4.68;;;;;19.00;94346.00;;;;7402032;19;20136;-79
2023/08/24 03:45:00;;;;;;;5.07;4.57;;;;;19.00;94340.00;;;;7401494;19;20144;-79
2023/08/24 03:47:34;;;;;;;6.35;4.22;;;;;19.00;94331.00;;;;7402022;19;20155;-79
2023/08/24 03:50:10;;;;;;;9.73;4.75;;;;;19.20;94331.00;;;;7401033;19;20762;-78
2023/08/24 03:52:39;;;;;;;7.47;4.50;;;;;19.30;94327.00;;;;7401096;19;20145;-81
2023/08/24 03:55:08;;;;;;;7.90;4.43;;;;;19.30;94331.00;;;;7402403;19;20599;-81
2023/08/24 03:57:43;;;;;;;8.40;4.90;;;;;19.30;94323.00;;;;7402310;19;20583;-79
2023/08/24 04:00:11;;;;;;;5.72;4.00;;;;;19.20;94321.00;;;;7402012;19;20129;-79
2023/08/24 04:02:53;;;;;;;7.97;4.50;;;;;19.20;94327.00;;;;7399272;19;20651;-79
2023/08/24 04:05:22;;;;;;;11.02;4.68;;;;;19.20;94322.00;;;;7401505;19;20479;-79
2023/08/24 04:07:56;;;;;;;10.10;4.85;;;;;19.10;94316.00;;;;7402028;19;20456;-79
2023/08/24 04:10:31;;;;;;;10.73;4.35;;;;;18.90;94319.00;;;;7400956;19;20602;-79
2023/08/24 04:13:00;;;;;;;5.82;4.63;;;;;18.90;94317.00;;;;7394263;19;20573;-79
2023/08/24 04:15:34;;;;;;;10.07;5.00;;;;;19.00;94315.00;;;;7394197;19;20155;-78
2023/08/24 04:18:09;;;;;;;5.78;4.55;;;;;19.00;94318.00;;;;7396504;19;20603;-79
2023/08/24 04:20:44;;;;;;;6.43;4.32;;;;;19.10;94322.00;;;;7398158;19;20143;-78
2023/08/24 04:23:27;;;;;;;9.07;5.07;;;;;19.10;94326.00;;;;7398452;19;20610;-79
2023/08/24 04:26:05;;;;;;;5.75;4.22;;;;;19.00;94316.00;;;;7400497;19;20140;-79
2023/08/24 04:28:32;;;;;;;7.93;4.72;;;;;19.00;94321.00;;;;7401360;19;20129;-79
2023/08/24 04:31:10;;;;;;;5.38;4.20;;;;;18.90;94322.00;;;;7395499;19;20148;-74
2023/08/24 04:33:38;;;;;;;4.45;3.97;;;;;18.90;94328.00;;;;7395202;19;20141;-74
2023/08/24 04:36:15;;;;;;;5.95;4.63;;;;;18.90;94320.00;;;;7399059;19;20200;-75
2023/08/24 04:38:50;;;;;;;11.15;4.75;;;;;18.90;94321.00;;;;7398594;19;20144;-74
2023/08/24 04:41:25;;;;;;;7.78;4.32;;;;;19.00;94321.00;;;;7398129;19;20159;-74
2023/08/24 04:43:59;;;;;;;7.05;4.18;;;;;19.10;94319.00;;;;7397064;19;20139;-74
2023/08/24 04:46:29;;;;;;;10.25;4.95;;;;;19.00;94319.00;;;;7396261;19;20144;-75
2023/08/24 04:48:57;;;;;;;5.57;4.78;;;;;19.00;94320.00;;;;7399692;19;20143;-74
2023/08/24 04:51:31;;;;;;;5.72;4.43;;;;;18.90;94326.00;;;;7398150;19;20527;-74
2023/08/24 04:53:58;;;;;;;6.13;4.13;;;;;18.90;94322.00;;;;7397383;19;20144;-75
2023/08/24 04:56:35;;;;;;;8.38;4.38;;;;;18.90;94323.00;;;;7396161;19;20176;-74
2023/08/24 04:59:04;;;;;;;6.53;4.20;;;;;19.00;94319.00;;;;7397176;19;20132;-74
2023/08/24 05:01:38;;;;;;;6.43;4.05;;;;;19.00;94310.00;;;;7397606;19;20507;-74
2023/08/24 05:04:06;;;;;;;7.25;4.60;;;;;19.10;94314.00;;;;7395757;19;20513;-73
2023/08/24 05:06:46;;;;;;;11.93;4.90;;;;;19.20;94309.00;;;;7397398;19;20768;-73
2023/08/24 05:09:14;;;;;;;5.95;4.60;;;;;19.30;94309.00;;;;7397519;19;20140;-75
2023/08/24 05:11:49;;;;;;;6.90;4.60;;;;;19.20;94303.00;;;;7397976;19;20265;-73
2023/08/24 05:14:17;;;;;;;7.95;5.10;;;;;19.50;94302.00;;;;7397131;19;20192;-75
2023/08/24 05:16:52;;;;;;;8.90;5.03;;;;;19.50;94298.00;;;;7394518;19;20171;-74
2023/08/24 05:19:28;;;;;;;9.23;4.60;;;;;19.70;94295.00;;;;7398111;19;20151;-74
2023/08/24 05:21:57;;;;;;;10.27;5.30;;;;;19.80;94289.00;;;;7398532;19;20607;-74
2023/08/24 05:24:32;;;;;;;11.20;4.75;;;;;19.90;94285.00;;;;7391972;19;20133;-75
2023/08/24 05:27:08;;;;;;;10.90;4.13;;;;;20.00;94288.00;;;;7385877;19;20611;-75
2023/08/24 05:29:44;;;;;;;6.55;4.28;;;;;20.00;94282.00;;;;7385210;19;20155;-74
2023/08/24 05:32:12;;;;;;;10.50;4.47;;;;;20.20;94278.00;;;;7384277;19;20135;-76
2023/08/24 05:34:46;;;;;;;9.50;4.32;;;;;20.20;94278.00;;;;7382324;19;20147;-77
2023/08/24 05:37:14;;;;;;;5.80;4.18;;;;;20.30;94286.00;;;;7384466;19;20479;-74
2023/08/24 05:39:49;;;;;;;5.68;4.20;;;;;20.30;94280.00;;;;7384561;19;20274;-75
2023/08/24 05:42:17;;;;;;;10.23;4.72;;;;;20.30;94282.00;;;;7384378;19;20619;-80
2023/08/24 05:44:51;;;;;;;5.63;4.20;;;;;20.20;94279.00;;;;7387106;19;20165;-79
2023/08/24 05:47:19;;;;;;;6.82;3.92;;;;;20.20;94284.00;;;;7383964;19;20161;-80
2023/08/24 05:49:55;;;;;;;6.32;3.90;;;;;20.20;94289.00;;;;7384545;19;20981;-80
2023/08/24 05:52:23;;;;;;;6.68;3.95;;;;;20.10;94283.00;;;;7385860;19;20148;-80
2023/08/24 05:54:59;;;;;;;7.40;4.32;;;;;20.10;94278.00;;;;7383845;19;20778;-79
2023/08/24 05:57:28;;;;;;;8.23;4.35;;;;;20.10;94288.00;;;;7386234;19;20665;-80
2023/08/24 06:00:03;;;;;;;5.88;4.18;;;;;20.20;94286.00;;;;7385698;19;20457;-79
2023/08/24 06:02:31;;;;;;;8.75;4.35;;;;;20.00;94291.00;;;;7385063;19;20195;-79
2023/08/24 06:05:13;;;;;;;11.05;4.50;;;;;20.10;94295.00;;;;7384173;19;20128;-78
2023/08/24 06:07:48;;;;;;;9.10;4.70;;;;;20.20;94274.00;;;;7381176;19;20129;-79
2023/08/24 06:10:17;;;;;;;6.95;4.53;;;;;20.20;94292.00;;;;7385840;19;20129;-79
2023/08/24 06:12:52;;;;;;;7.00;4.32;;;;;20.30;94301.00;;;;7385529;19;20132;-76
2023/08/24 06:15:27;;;;;;;6.00;4.50;;;;;20.40;94303.00;;;;7381587;19;20134;-79
2023/08/24 06:18:02;;;;;;;6.85;4.18;;;;;20.40;94305.00;;;;7381286;19;20148;-76
2023/08/24 06:20:36;;;;;;;6.50;3.97;;;;;20.50;94311.00;;;;7383344;19;20150;-79
2023/08/24 06:23:11;;;;;;;5.20;3.70;;;;;20.50;94322.00;;;;7384405;19;20190;-79
2023/08/24 06:30:11;;;;;;;6.20;4.18;;;;;20.50;94355.00;;;;7383925;19;20196;-78
2023/08/24 06:32:46;;;;;;;4.60;4.10;;;;;20.50;94359.00;;;;7381105;19;20148;-79
2023/08/24 06:35:14;;;;;;;4.85;4.25;;;;;20.50;94352.00;;;;7383557;19;20132;-80
2023/08/24 06:37:49;;;;;;;6.72;4.05;;;;;20.60;94327.00;;;;7381110;19;20641;-80
2023/08/24 06:40:17;;;;;;;5.03;4.00;;;;;20.60;94335.00;;;;7383574;19;20125;-79
2023/08/24 06:42:51;;;;;;;4.85;4.35;;;;;20.60;94341.00;;;;7381915;19;20568;-80
2023/08/24 06:45:27;;;;;;;6.30;3.90;;;;;20.70;94348.00;;;;7381277;19;20625;-79
2023/08/24 06:47:55;;;;;;;5.70;3.85;;;;;20.90;94344.00;;;;7387602;19;20244;-80
2023/08/24 06:50:29;;;;;;;11.30;4.70;;;;;21.10;94347.00;;;;7396243;19;20128;-80
2023/08/24 06:52:57;;;;;;;4.55;3.92;;;;;21.20;94339.00;;;;7394627;19;20120;-81
2023/08/24 06:55:31;;;;;;;4.63;4.18;;;;;21.50;94331.00;;;;7393173;19;20156;-80
2023/08/24 06:58:06;;;;;;;4.80;4.40;;;;;21.60;94325.00;;;;7391020;19;20483;-79
2023/08/24 07:00:35;;;;;;;4.15;3.83;;;;;21.40;94312.00;;;;7386722;19;20548;-79
2023/08/24 07:03:17;;;;;;;6.07;4.80;;;;;21.40;94318.00;;;;7390713;19;20297;-78
2023/08/24 07:05:46;;;;;;;6.97;4.28;;;;;21.50;94316.00;;;;7391625;19;20595;-78
2023/08/24 07:08:20;;;;;;;4.82;4.30;;;;;21.80;94321.00;;;;7392831;19;20132;-78
2023/08/24 07:10:54;;;;;;;6.97;4.10;;;;;22.10;94316.00;;;;7393816;19;20594;-79
2023/08/24 07:13:29;;;;;;;12.52;4.80;;;;;22.50;94314.00;;;;7392779;19;20513;-80
2023/08/24 07:16:04;;;;;;;5.95;3.50;;;;;22.90;94304.00;;;;7391767;19;20133;-79
2023/08/24 07:18:32;;;;;;;7.25;3.88;;;;;23.10;94306.00;;;;7388686;19;20146;-78
2023/08/24 07:21:06;;;;;;;6.10;3.50;;;;;23.20;94304.00;;;;7393555;19;20257;-78
2023/08/24 07:23:40;;;;;;;8.20;4.05;;;;;23.50;94309.00;;;;7390492;19;20141;-78
2023/08/24 07:26:14;;;;;;;4.13;3.72;;;;;23.40;94306.00;;;;7393707;19;20132;-78
2023/08/24 07:28:42;;;;;;;5.80;3.90;;;;;23.40;94299.00;;;;7392258;19;20144;-78
2023/08/24 07:31:18;;;;;;;5.50;3.40;;;;;23.90;94297.00;;;;7392245;19;20571;-78
2023/08/24 07:33:53;;;;;;;6.30;4.10;;;;;23.90;94301.00;;;;7392268;19;20176;-78
2023/08/24 07:36:21;;;;;;;6.10;3.80;;;;;23.90;94297.00;;;;7393371;19;20145;-78
2023/08/24 07:38:55;;;;;;;6.43;3.60;;;;;24.10;94290.00;;;;7392554;19;20136;-78
2023/08/24 07:41:22;;;;;;;5.68;3.67;;;;;24.20;94294.00;;;;7394646;19;20148;-78
2023/08/24 07:43:57;;;;;;;6.68;4.13;;;;;24.40;94293.00;;;;7392334;19;20477;-77
2023/08/24 07:46:25;;;;;;;4.85;3.83;;;;;24.60;94300.00;;;;7390812;19;20472;-78
2023/08/24 07:48:59;;;;;;;5.07;4.07;;;;;24.90;94299.00;;;;7391631;19;20610;-78
2023/08/24 07:51:34;;;;;;;5.35;3.50;;;;;25.00;94309.00;;;;7391287;19;20160;-78
2023/08/24 07:54:09;;;;;;;4.30;3.90;;;;;25.20;94309.00;;;;7391434;19;20123;-77
2023/08/24 07:56:37;;;;;;;4.57;3.72;;;;;25.10;94314.00;;;;7394260;19;20117;-78
2023/08/24 07:59:11;;;;;;;8.20;4.10;;;;;25.40;94316.00;;;;7396083;19;20164;-78
2023/08/24 08:01:39;;;;;;;4.40;4.00;;;;;25.40;94310.00;;;;7398628;19;20153;-78
2023/08/24 08:04:20;;;;;;;6.55;4.20;;;;;25.90;94319.00;;;;7395831;19;20172;-78
2023/08/24 08:06:48;;;;;;;7.93;3.88;;;;;26.00;94307.00;;;;7398926;19;20152;-78
2023/08/24 08:09:22;;;;;;;7.00;3.55;;;;;26.20;94310.00;;;;7399602;19;20139;-77
2023/08/24 08:11:50;;;;;;;8.57;4.20;;;;;26.20;94321.00;;;;7400060;19;20125;-78
2023/08/24 08:14:26;;;;;;;5.97;4.32;;;;;26.50;94311.00;;;;7396889;19;20602;-77
2023/08/24 08:16:54;;;;;;;7.78;3.78;;;;;26.50;94311.00;;;;7398918;19;20133;-78
2023/08/24 08:19:28;;;;;;;6.57;3.75;;;;;26.70;94324.00;;;;7399400;19;20129;-77
2023/08/24 08:21:55;;;;;;;6.80;3.72;;;;;26.70;94306.00;;;;7394250;19;20160;-78
2023/08/24 08:24:37;;;;;;;6.38;3.83;;;;;26.90;94309.00;;;;7397419;19;20144;-77
2023/08/24 08:27:04;;;;;;;6.18;4.00;;;;;26.50;94314.00;;;;7400318;19;20161;-77
2023/08/24 08:29:39;;;;;;;6.10;4.03;;;;;26.80;94302.00;;;;7397273;19;20135;-78
2023/08/24 08:32:07;;;;;;;8.82;3.80;;;;;27.00;94306.00;;;;7400057;19;20164;-78
2023/08/24 08:34:42;;;;;;;6.10;3.60;;;;;27.30;94309.00;;;;7398050;19;20473;-78
2023/08/24 08:37:16;;;;;;;5.25;3.78;;;;;27.30;94302.00;;;;7397208;19;20151;-77
2023/08/24 08:39:44;;;;;;;4.50;4.05;;;;;27.50;94305.00;;;;7398603;19;20133;-76
2023/08/24 08:42:18;;;;;;;6.40;3.80;;;;;27.70;94309.00;;;;7397088;19;20200;-78
2023/08/24 08:44:54;;;;;;;5.93;3.90;;;;;28.00;94310.00;;;;7398160;19;20143;-77
2023/08/24 08:47:29;;;;;;;6.65;3.72;;;;;27.80;94313.00;;;;7398982;19;20611;-78
2023/08/24 08:49:57;;;;;;;6.68;3.70;;;;;27.90;94307.00;;;;7396669;19;20145;-78
2023/08/24 08:52:33;;;;;;;11.23;4.03;;;;;28.00;94312.00;;;;7395837;19;20495;-77
2023/08/24 08:55:06;;;;;;;4.00;3.60;;;;;28.10;94311.00;;;;7397886;19;20224;-78
2023/08/24 08:57:41;;;;;;;4.53;3.72;;;;;28.00;94317.00;;;;7398833;19;20188;-78
2023/08/24 09:00:13;;;;;;;5.35;3.58;;;;;27.80;94307.00;;;;7399238;19;20140;-79
2023/08/24 09:02:56;;;;;;;9.85;3.90;;;;;27.70;94298.00;;;;7398547;19;20619;-78
2023/08/24 09:05:26;;;;;;;4.75;3.90;;;;;27.80;94291.00;;;;7395786;19;20144;-78
2023/08/24 09:08:02;;;;;;;5.57;3.88;;;;;27.80;94285.00;;;;7398995;19;20203;-78
2023/08/24 09:10:31;;;;;;;6.55;4.00;;;;;27.80;94278.00;;;;7398813;19;20141;-77
2023/08/24 09:13:12;;;;;;;9.15;3.92;;;;;27.80;94276.00;;;;7396738;19;20148;-72
2023/08/24 09:15:46;;;;;;;5.57;3.97;;;;;28.10;94268.00;;;;7397016;19;20639;-73
2023/08/24 09:18:14;;;;;;;6.70;4.13;;;;;28.30;94274.00;;;;7397172;19;20628;-72
2023/08/24 09:20:49;;;;;;;5.15;3.70;;;;;28.00;94273.00;;;;7397262;19;20616;-71
2023/08/24 09:23:23;;;;;;;11.32;4.60;;;;;28.40;94273.00;;;;7393650;19;20137;-72
2023/08/24 09:25:51;;;;;;;8.70;4.30;;;;;28.70;94276.00;;;;7396650;19;20157;-72
2023/08/24 09:28:26;;;;;;;9.70;4.15;;;;;28.50;94263.00;;;;7395110;19;20156;-73
2023/08/24 09:30:54;;;;;;;6.07;3.90;;;;;28.70;94248.00;;;;7399152;19;20133;-73
2023/08/24 09:33:30;;;;;;;7.22;4.80;;;;;28.60;94253.00;;;;7396546;19;20618;-71
2023/08/24 09:36:04;;;;;;;8.77;3.92;;;;;28.90;94243.00;;;;7395699;19;20137;-73
2023/08/24 09:38:45;;;;;;;7.10;4.47;;;;;28.40;94240.00;;;;7398994;19;20156;-73
2023/08/24 09:41:20;;;;;;;5.03;4.20;;;;;28.60;94244.00;;;;7397675;19;20496;-71
2023/08/24 09:43:54;;;;;;;5.45;4.07;;;;;28.70;94239.00;;;;7396704;19;20584;-72
2023/08/24 09:46:25;;;;;;;6.28;4.78;;;;;28.60;94234.00;;;;7394323;19;20145;-72
2023/08/24 09:49:01;;;;;;;8.40;4.40;;;;;28.50;94236.00;;;;7398172;19;20140;-72
2023/08/24 09:51:29;;;;;;;10.55;4.45;;;;;28.40;94222.00;;;;7396176;19;20137;-73
2023/08/24 09:54:09;;;;;;;7.28;4.13;;;;;28.50;94217.00;;;;7398441;19;20475;-72
2023/08/24 09:56:44;;;;;;;7.85;5.05;;;;;28.80;94209.00;;;;7396876;19;20893;-72
2023/08/24 09:59:24;;;;;;;5.03;4.53;;;;;28.90;94210.00;;;;7394937;19;20144;-72
2023/08/24 10:02:01;;;;;;;5.57;4.38;;;;;29.10;94203.00;;;;7392022;19;20179;-73
2023/08/24 10:04:44;;;;;;;8.25;4.50;;;;;29.60;94192.00;;;;7393826;19;20152;-73
2023/08/24 10:07:22;;;;;;;5.75;4.75;;;;;29.50;94186.00;;;;7393559;19;20196;-72
2023/08/24 10:10:03;;;;;;;5.95;4.53;;;;;29.90;94188.00;;;;7391362;19;20152;-73
2023/08/24 10:12:46;;;;;;;6.38;4.20;;;;;30.20;94182.00;;;;7396636;19;20144;-72
2023/08/24 10:15:23;;;;;;;5.35;4.85;;;;;29.70;94190.00;;;;7395425;19;20141;-72
2023/08/24 10:17:58;;;;;;;15.20;4.40;;;;;29.70;94181.00;;;;7395701;19;20606;-72
2023/08/24 10:20:27;;;;;;;10.88;4.70;;;;;29.80;94170.00;;;;7395682;19;20580;-73
2023/08/24 10:23:02;;;;;;;6.50;5.25;;;;;29.70;94171.00;;;;7392293;19;20624;-78
2023/08/24 10:25:32;;;;;;;8.95;5.65;;;;;29.70;94182.00;;;;7395329;19;20134;-77
2023/08/24 10:28:08;;;;;;;8.15;4.95;;;;;30.10;94168.00;;;;7394181;19;20620;-78
2023/08/24 10:30:39;;;;;;;10.48;5.72;;;;;30.30;94161.00;;;;7389445;19;20547;-77
2023/08/24 10:33:15;;;;;;;8.45;5.40;;;;;30.40;94158.00;;;;7390455;19;20610;-76
2023/08/24 10:35:45;;;;;;;9.05;4.85;;;;;30.50;94163.00;;;;7392366;19;20447;-79
2023/08/24 10:38:29;;;;;;;9.90;5.05;;;;;30.30;94161.00;;;;7391273;19;20124;-78
2023/08/24 10:41:05;;;;;;;12.13;5.43;;;;;30.40;94164.00;;;;7395368;19;20151;-78
2023/08/24 10:43:48;;;;;;;12.38;5.63;;;;;30.10;94161.00;;;;7393169;19;20135;-77
2023/08/24 10:46:17;;;;;;;11.40;5.38;;;;;29.70;94151.00;;;;7391052;19;20138;-76
2023/08/24 10:48:59;;;;;;;6.35;5.13;;;;;29.90;94142.00;;;;7389917;19;20136;-78
2023/08/24 10:51:30;;;;;;;11.25;5.57;;;;;30.20;94133.00;;;;7388876;19;21031;-77
2023/08/24 10:54:04;;;;;;;6.28;4.88;;;;;29.80;94139.00;;;;7387582;19;20196;-77
2023/08/24 10:56:37;;;;;;;10.55;5.18;;;;;30.50;94125.00;;;;7387117;19;20124;-79
2023/08/24 10:59:18;;;;;;;14.93;5.35;;;;;30.30;94139.00;;;;7385899;19;20183;-76
2023/08/24 11:01:58;;;;;;;11.27;5.05;;;;;30.50;94132.00;;;;7384840;19;20175;-76
2023/08/24 11:04:38;;;;;;;8.68;5.65;;;;;30.80;94138.00;;;;7385689;19;20578;-77
2023/08/24 11:07:15;;;;;;;10.68;5.95;;;;;30.50;94130.00;;;;7384102;19;20136;-77
2023/08/24 11:10:05;;;;;;;10.95;5.43;;;;;30.70;94127.00;;;;7384342;19;20224;-77
2023/08/24 11:13:11;;;;;;;7.00;5.50;;;;;31.00;94131.00;;;;7389086;19;20436;-78
2023/08/24 11:15:50;;;;;;;10.70;5.82;;;;;31.60;94129.00;;;;7389321;19;20129;-78
2023/08/24 11:18:23;;;;;;;10.02;5.80;;;;;31.50;94124.00;;;;7388131;19;20630;-77
2023/08/24 11:21:08;;;;;;;7.72;5.07;;;;;31.60;94109.00;;;;7388425;19;20136;-77
2023/08/24 11:23:38;;;;;;;6.63;5.45;;;;;32.10;94105.00;;;;7387521;19;20158;-77
2023/08/24 11:26:12;;;;;;;7.15;5.70;;;;;32.10;94107.00;;;;7388961;19;20475;-77
2023/08/24 11:28:46;;;;;;;10.43;5.13;;;;;32.00;94113.00;;;;7386036;19;20125;-78
2023/08/24 11:31:20;;;;;;;5.18;4.60;;;;;32.10;94105.00;;;;7388144;19;20216;-75
2023/08/24 11:33:54;;;;;;;9.60;5.20;;;;;32.40;94101.00;;;;7395914;19;20137;-75
2023/08/24 11:36:29;;;;;;;8.60;5.32;;;;;32.70;94095.00;;;;7393135;19;20136;-76
2023/08/24 11:39:01;;;;;;;12.82;5.13;;;;;31.80;94105.00;;;;7395808;19;20584;-74
2023/08/24 11:41:36;;;;;;;8.85;5.63;;;;;31.50;94109.00;;;;7393660;19;20884;-75
2023/08/24 11:44:10;;;;;;;8.82;4.93;;;;;31.60;94111.00;;;;7397034;19;20132;-76
2023/08/24 11:46:58;;;;;;;8.85;5.25;;;;;31.70;94102.00;;;;7392736;19;20144;-76
2023/08/24 11:49:33;;;;;;;9.60;5.45;;;;;32.10;94100.00;;;;7394352;19;20147;-76
2023/08/24 11:52:09;;;;;;;6.93;5.03;;;;;32.40;94101.00;;;;7392011;19;20609;-74
2023/08/24 11:54:41;;;;;;;14.68;5.28;;;;;32.30;94107.00;;;;7396520;19;20169;-74
2023/08/24 11:57:16;;;;;;;8.38;5.15;;;;;32.20;94082.00;;;;7398102;19;20490;-75
2023/08/24 11:59:45;;;;;;;10.73;5.00;;;;;32.10;94084.00;;;;7399807;19;20148;-75
2023/08/24 12:02:19;;;;;;;7.13;5.47;;;;;32.00;94080.00;;;;7400154;19;20163;-74
2023/08/24 12:04:57;;;;;;;10.40;4.47;;;;;32.50;94094.00;;;;7393317;19;20148;-76
2023/08/24 12:07:38;;;;;;;8.65;4.75;;;;;32.50;94076.00;;;;7398322;19;20136;-75
2023/08/24 12:10:07;;;;;;;8.23;5.15;;;;;32.90;94071.00;;;;7402242;19;20439;-75
2023/08/24 12:12:42;;;;;;;7.65;5.03;;;;;33.30;94072.00;;;;7400651;19;20600;-77
2023/08/24 12:15:17;;;;;;;10.32;5.20;;;;;33.50;94064.00;;;;7399033;19;20140;-75
2023/08/24 12:17:51;;;;;;;8.57;4.70;;;;;33.60;94078.00;;;;7401283;19;20132;-78
2023/08/24 12:20:24;;;;;;;16.48;5.07;;;;;32.70;94070.00;;;;7400566;19;20231;-76
2023/08/24 12:23:00;;;;;;;6.13;4.82;;;;;32.20;94074.00;;;;7400143;19;20598;-76
2023/08/24 12:25:38;;;;;;;10.23;5.30;;;;;32.40;94059.00;;;;7401046;19;20140;-76
2023/08/24 12:28:15;;;;;;;6.38;4.70;;;;;32.40;94053.00;;;;7399178;19;20583;-74
2023/08/24 12:30:52;;;;;;;8.65;5.00;;;;;32.40;94052.00;;;;7399531;19;20139;-76
2023/08/24 12:33:27;;;;;;;7.63;4.68;;;;;32.40;94043.00;;;;7401270;19;20132;-75
2023/08/24 12:36:05;;;;;;;14.68;5.25;;;;;32.70;94036.00;;;;7397174;19;20185;-75
2023/08/24 12:38:36;;;;;;;10.35;5.05;;;;;33.50;94029.00;;;;7398393;19;20139;-75
2023/08/24 12:41:10;;;;;;;8.25;5.03;;;;;33.80;94022.00;;;;7399482;19;20587;-77
2023/08/24 12:43:39;;;;;;;9.63;4.95;;;;;33.40;94029.00;;;;7397775;19;20195;-75
2023/08/24 12:46:14;;;;;;;11.05;4.95;;;;;33.50;94016.00;;;;7397548;19;20165;-76
2023/08/24 12:48:48;;;;;;;19.08;5.13;;;;;33.60;94012.00;;;;7400368;19;20149;-73
2023/08/24 12:51:26;;;;;;;9.40;4.75;;;;;33.70;94010.00;;;;7397269;19;20219;-75
2023/08/24 12:53:54;;;;;;;10.00;5.20;;;;;33.70;94003.00;;;;7399776;19;20589;-75